createdAt,value
2022-10-12T00:03:13.403Z,42.13
2022-10-12T00:08:36.326Z,42.33
2022-10-12T00:13:58.833Z,42.21
2022-10-12T00:19:20.454Z,42.13
2022-10-12T00:24:43.036Z,42.61
2022-10-12T00:30:05.518Z,42.12
2022-10-12T00:35:28.894Z,42.06
2022-10-12T00:40:50.869Z,42.23
2022-10-12T00:46:24.859Z,42.21
2022-10-12T00:51:53.243Z,42.35
2022-10-12T00:57:18.152Z,42.56
2022-10-12T01:02:43.230Z,42.17
2022-10-12T01:08:05.040Z,42.40
2022-10-12T01:13:27.155Z,42.38
2022-10-12T01:19:04.427Z,42.10
2022-10-12T01:24:52.166Z,42.16
2022-10-12T01:30:22.238Z,42.18
2022-10-12T01:36:05.189Z,41.87
2022-10-12T01:41:32.260Z,42.04
2022-10-12T01:46:55.545Z,41.95
2022-10-12T01:52:32.240Z,41.89
2022-10-12T01:58:02.894Z,41.96
2022-10-12T02:03:49.694Z,41.83
2022-10-12T02:09:41.619Z,42.24
2022-10-12T02:15:07.747Z,42.21
2022-10-12T02:20:29.425Z,41.90
2022-10-12T02:25:53.740Z,42.12
2022-10-12T02:31:25.794Z,42.19
2022-10-12T02:36:56.572Z,42.00
2022-10-12T02:42:24.942Z,41.96
2022-10-12T02:47:48.147Z,42.00
2022-10-12T02:53:12.748Z,41.75
2022-10-12T02:58:34.611Z,42.25
2022-10-12T03:03:56.305Z,41.90
2022-10-12T03:09:17.959Z,41.90
2022-10-12T03:14:40.219Z,42.06
2022-10-12T03:20:01.890Z,42.17
2022-10-12T03:25:23.553Z,42.10
2022-10-12T03:30:45.292Z,42.04
2022-10-12T03:36:08.222Z,42.04
2022-10-12T03:41:29.961Z,41.72
2022-10-12T03:46:51.686Z,41.57
2022-10-12T03:52:13.311Z,41.78
2022-10-12T03:57:35.210Z,41.82
2022-10-12T04:02:57.205Z,41.94
2022-10-12T04:08:18.924Z,41.91
2022-10-12T04:13:40.616Z,41.50
2022-10-12T04:19:02.810Z,41.86
2022-10-12T04:24:24.506Z,41.47
2022-10-12T04:29:46.320Z,41.53
2022-10-12T04:35:08.170Z,41.65
2022-10-12T04:40:30.222Z,41.50
2022-10-12T04:45:59.435Z,41.69
2022-10-12T04:51:21.163Z,41.47
2022-10-12T04:56:47.508Z,41.56
2022-10-12T05:02:09.827Z,41.55
2022-10-12T05:07:31.490Z,41.81
2022-10-12T05:12:53.152Z,41.71
2022-10-12T05:18:14.865Z,41.69
2022-10-12T05:23:36.506Z,41.46
2022-10-12T05:28:58.398Z,41.33
2022-10-12T05:34:20.450Z,41.31
2022-10-12T05:39:42.238Z,41.03
2022-10-12T05:45:05.077Z,41.16
2022-10-12T05:50:26.785Z,41.10
2022-10-12T05:55:59.246Z,40.73
2022-10-12T06:01:20.970Z,40.94
2022-10-12T06:06:42.717Z,40.83
2022-10-12T06:12:04.746Z,41.26
2022-10-12T06:17:26.475Z,41.35
2022-10-12T06:22:48.138Z,41.07
2022-10-12T06:28:10.547Z,40.98
2022-10-12T06:33:32.336Z,40.94
2022-10-12T06:38:54.027Z,41.42
2022-10-12T06:44:15.780Z,41.33
2022-10-12T06:49:37.444Z,40.98
2022-10-12T06:54:59.082Z,41.35
2022-10-12T07:00:20.963Z,41.23
2022-10-12T07:05:42.665Z,41.13
2022-10-12T07:11:06.240Z,40.82
2022-10-12T07:16:27.974Z,40.46
2022-10-12T07:21:49.745Z,39.66
2022-10-12T07:27:11.759Z,39.19
2022-10-12T07:32:33.490Z,38.69
2022-10-12T07:37:55.249Z,38.55
2022-10-12T07:43:17.318Z,37.69
2022-10-12T07:48:45.646Z,36.93
2022-10-12T07:54:11.011Z,35.67
2022-10-12T07:59:32.646Z,34.54
2022-10-12T08:04:54.336Z,33.88
2022-10-12T08:10:16.841Z,34.33
2022-10-12T08:15:38.499Z,35.17
2022-10-12T08:21:00.167Z,35.74
2022-10-12T08:26:21.836Z,36.39
2022-10-12T08:31:43.496Z,36.85
2022-10-12T08:37:05.158Z,37.04
2022-10-12T08:43:04.989Z,37.43
2022-10-12T08:48:34.755Z,37.80
2022-10-12T08:53:59.160Z,38.15
2022-10-12T08:59:21.124Z,37.98
2022-10-12T09:05:08.631Z,38.43
2022-10-12T09:10:45.106Z,38.48
2022-10-12T09:16:25.472Z,38.95
2022-10-12T09:21:48.941Z,39.03
2022-10-12T09:27:16.354Z,38.96
2022-10-12T09:32:49.398Z,39.01
2022-10-12T09:38:11.979Z,39.32
2022-10-12T09:43:33.786Z,39.34
2022-10-12T09:49:00.178Z,39.49
2022-10-12T09:54:28.698Z,39.62
2022-10-12T09:59:50.529Z,39.79
2022-10-12T10:05:25.903Z,40.19
2022-10-12T10:11:06.161Z,40.03
2022-10-12T10:16:29.360Z,39.94
2022-10-12T10:21:51.286Z,40.16
2022-10-12T10:27:30.946Z,40.46
2022-10-12T10:33:09.123Z,40.48
2022-10-12T10:39:01.222Z,40.15
2022-10-12T10:44:33.992Z,40.72
2022-10-12T10:49:57.705Z,40.54
2022-10-12T10:55:21.070Z,39.76
2022-10-12T11:00:49.240Z,39.05
2022-10-12T11:06:20.136Z,39.31
2022-10-12T11:11:44.167Z,39.16
2022-10-12T11:17:12.966Z,38.41
2022-10-12T11:22:45.110Z,38.13
2022-10-12T11:28:11.053Z,38.36
2022-10-12T11:33:39.500Z,38.88
2022-10-12T11:39:18.030Z,38.13
2022-10-12T11:44:47.735Z,37.52
2022-10-12T11:50:39.735Z,37.70
2022-10-12T11:56:21.895Z,38.10
2022-10-12T12:02:11.887Z,38.44
2022-10-12T12:07:41.355Z,38.63
2022-10-12T12:13:13.211Z,38.60
2022-10-12T12:19:09.890Z,38.78
2022-10-12T12:24:31.640Z,38.73
2022-10-12T12:29:54.330Z,39.21
2022-10-12T12:35:24.254Z,39.11
2022-10-12T12:41:05.904Z,39.44
2022-10-12T12:46:52.434Z,39.68
2022-10-12T12:52:29.541Z,39.77
2022-10-12T12:58:06.176Z,39.52
2022-10-12T13:03:52.454Z,39.82
2022-10-12T13:09:16.844Z,39.76
2022-10-12T13:14:54.761Z,39.73
2022-10-12T13:20:23.632Z,39.83
2022-10-12T13:26:06.619Z,40.08
2022-10-12T13:31:36.925Z,40.27
2022-10-12T13:37:01.373Z,40.25
2022-10-12T13:42:28.009Z,40.44
2022-10-12T13:47:49.687Z,40.53
2022-10-12T13:53:15.111Z,40.38
2022-10-12T13:58:37.082Z,40.82
2022-10-12T14:04:05.263Z,41.05
2022-10-12T14:09:31.257Z,40.92
2022-10-12T14:14:53.951Z,40.74
2022-10-12T14:20:35.010Z,40.60
2022-10-12T14:25:57.331Z,40.43
2022-10-12T14:31:19.154Z,40.42
2022-10-12T14:36:40.849Z,40.19
2022-10-12T14:42:19.256Z,40.16
2022-10-12T14:47:43.037Z,40.19
2022-10-12T14:53:10.207Z,40.20
2022-10-12T14:58:31.863Z,40.25
2022-10-12T15:03:53.509Z,40.10
2022-10-12T15:09:15.186Z,39.74
2022-10-12T15:14:36.817Z,40.18
2022-10-12T15:19:58.549Z,39.71
2022-10-12T15:25:23.912Z,39.81
2022-10-12T15:31:15.397Z,40.01
2022-10-12T15:36:28.314Z,40.02
2022-10-12T15:41:49.998Z,40.03
2022-10-12T15:47:12.065Z,40.08
2022-10-12T15:52:33.947Z,40.59
2022-10-12T15:57:56.674Z,40.37
2022-10-12T16:03:25.562Z,40.74
2022-10-12T16:08:47.844Z,40.44
2022-10-12T16:14:14.495Z,40.83
2022-10-12T16:19:36.129Z,41.19
2022-10-12T16:24:57.809Z,41.43
2022-10-12T16:30:20.249Z,41.40
2022-10-12T16:35:42.191Z,41.26
2022-10-12T16:41:11.551Z,41.84
2022-10-12T16:46:33.265Z,41.60
2022-10-12T16:51:55.247Z,41.75
2022-10-12T16:57:16.928Z,41.42
2022-10-12T17:02:39.068Z,41.49
2022-10-12T17:08:01.112Z,41.64
2022-10-12T17:13:22.782Z,41.19
2022-10-12T17:18:44.567Z,41.51
2022-10-12T17:24:06.509Z,40.84
2022-10-12T17:29:30.053Z,40.45
2022-10-12T17:34:51.755Z,40.55
2022-10-12T17:40:13.432Z,40.97
2022-10-12T17:45:35.070Z,41.05
2022-10-12T17:51:09.521Z,41.00
2022-10-12T17:56:31.318Z,41.41
2022-10-12T18:01:53.602Z,41.06
2022-10-12T18:07:15.585Z,41.40
2022-10-12T18:12:37.668Z,41.72
2022-10-12T18:17:59.362Z,41.97
2022-10-12T18:23:21.129Z,42.07
2022-10-12T18:28:42.926Z,42.24
2022-10-12T18:34:04.715Z,42.17
2022-10-12T18:39:26.377Z,41.79
2022-10-12T18:44:48.093Z,42.18
2022-10-12T18:50:09.938Z,42.08
2022-10-12T18:55:32.320Z,41.86
2022-10-12T19:00:55.269Z,42.16
2022-10-12T19:06:20.122Z,42.22
2022-10-12T19:11:41.880Z,42.07
2022-10-12T19:17:03.563Z,42.42
2022-10-12T19:22:26.351Z,42.44
2022-10-12T19:27:48.447Z,42.24
2022-10-12T19:33:10.119Z,42.18
2022-10-12T19:38:31.858Z,42.75
2022-10-12T19:43:53.827Z,42.86
2022-10-12T19:49:17.191Z,42.44
2022-10-12T19:54:38.865Z,42.57
2022-10-12T20:00:00.529Z,42.31
2022-10-12T20:05:22.184Z,41.76
2022-10-12T20:10:43.867Z,42.02
2022-10-12T20:16:06.170Z,41.68
2022-10-12T20:21:28.144Z,41.73
2022-10-12T20:26:49.803Z,41.77
2022-10-12T20:32:11.482Z,42.31
2022-10-12T20:37:33.449Z,42.61
2022-10-12T20:42:56.164Z,42.42
2022-10-12T20:48:18.055Z,42.58
2022-10-12T20:53:39.775Z,42.97
2022-10-12T20:59:02.093Z,43.11
2022-10-12T21:04:25.491Z,43.24
2022-10-12T21:09:47.226Z,42.95
2022-10-12T21:15:09.478Z,43.46
2022-10-12T21:20:31.121Z,43.31
2022-10-12T21:25:53.127Z,43.05
2022-10-12T21:31:15.853Z,43.32
2022-10-12T21:36:38.000Z,43.18
2022-10-12T21:41:59.649Z,43.59
2022-10-12T21:47:21.279Z,43.59
2022-10-12T21:52:42.951Z,43.37
2022-10-12T21:58:04.675Z,43.22
2022-10-12T22:03:26.304Z,43.18
2022-10-12T22:08:53.830Z,43.40
2022-10-12T22:14:18.372Z,43.22
2022-10-12T22:19:40.086Z,43.59
2022-10-12T22:25:01.777Z,43.29
2022-10-12T22:30:23.429Z,43.38
2022-10-12T22:36:00.046Z,43.54
2022-10-12T22:41:23.152Z,43.53
2022-10-12T22:46:44.899Z,43.32
2022-10-12T22:52:06.585Z,43.35
2022-10-12T22:57:30.186Z,43.78
2022-10-12T23:02:51.807Z,43.66
2022-10-12T23:08:15.242Z,43.85
2022-10-12T23:13:38.307Z,43.68
2022-10-12T23:19:02.136Z,43.46
2022-10-12T23:24:23.759Z,43.60
2022-10-12T23:29:46.923Z,43.67
2022-10-12T23:35:08.712Z,43.56
2022-10-12T23:40:30.350Z,43.44
2022-10-12T23:45:51.991Z,43.63
2022-10-12T23:51:13.772Z,43.49
2022-10-12T23:56:35.821Z,43.44
